createdAt,value
2023-03-31T11:02:01.185Z,34.25
2023-03-31T11:03:46.716Z,37.25
2023-03-31T11:05:51.961Z,36.00
2023-03-31T11:07:32.744Z,36.50
2023-03-31T11:09:04.759Z,37.75
2023-03-31T11:10:54.044Z,40.50
2023-03-31T11:12:30.599Z,41.75
2023-03-31T11:14:25.010Z,42.25
2023-03-31T11:16:06.127Z,38.50
2023-03-31T11:18:15.621Z,42.00
2023-03-31T11:19:56.579Z,39.00
2023-03-31T11:21:53.094Z,44.25
2023-03-31T11:23:29.197Z,45.00
2023-03-31T11:25:21.443Z,45.50
2023-03-31T11:27:03.108Z,43.75
2023-03-31T11:28:37.653Z,50.25
2023-03-31T11:30:21.995Z,47.00
2023-03-31T11:32:21.650Z,56.75
2023-03-31T11:34:29.471Z,47.50
2023-03-31T11:36:07.140Z,55.75
2023-03-31T11:38:07.024Z,57.50
2023-03-31T11:39:47.907Z,61.25
2023-03-31T11:41:35.541Z,49.75
2023-03-31T11:43:10.589Z,62.25
2023-03-31T11:44:46.242Z,60.25
2023-03-31T11:46:25.721Z,66.00
2023-03-31T11:48:05.496Z,65.75
2023-03-31T11:49:40.222Z,64.00
2023-03-31T11:51:19.553Z,66.50
2023-03-31T11:52:59.001Z,63.25
2023-03-31T11:54:31.678Z,65.25
2023-03-31T11:56:05.452Z,64.75
2023-03-31T11:57:43.260Z,67.00
2023-03-31T11:59:16.394Z,64.80
2023-03-31T12:00:58.763Z,68.20
2023-03-31T12:02:49.412Z,69.20
2023-03-31T12:04:54.207Z,70.20
2023-03-31T12:06:30.657Z,65.50
2023-03-31T12:08:13.852Z,72.20
2023-03-31T12:10:11.046Z,68.25
2023-03-31T12:12:00.078Z,66.40
2023-03-31T12:13:51.843Z,65.80
2023-03-31T12:15:30.719Z,74.80
2023-03-31T12:17:05.439Z,63.40
2023-03-31T12:18:58.922Z,67.00
2023-03-31T12:21:01.067Z,68.20
2023-03-31T12:22:39.188Z,79.00
2023-03-31T12:24:12.201Z,79.50
2023-03-31T12:25:56.532Z,82.50
2023-03-31T12:27:35.137Z,80.50
2023-03-31T12:29:25.472Z,81.00
2023-03-31T12:30:57.462Z,70.60
2023-03-31T12:32:31.540Z,69.20
2023-03-31T12:34:06.472Z,88.50
2023-03-31T12:35:53.965Z,64.80
2023-03-31T12:37:47.776Z,59.00
2023-03-31T12:39:29.492Z,53.25
2023-03-31T12:41:19.958Z,51.50
2023-03-31T12:43:15.405Z,54.50
2023-03-31T12:45:06.085Z,50.25
2023-03-31T12:46:56.263Z,56.50
2023-03-31T12:48:33.826Z,51.50
2023-03-31T12:50:33.073Z,53.75
2023-03-31T12:52:06.409Z,53.00
2023-03-31T12:53:46.936Z,56.25
2023-03-31T12:55:32.817Z,51.50
2023-03-31T12:57:12.638Z,54.50
2023-03-31T12:58:45.752Z,49.75
2023-03-31T13:00:27.516Z,51.75
2023-03-31T13:02:15.331Z,54.00
2023-03-31T13:03:51.282Z,61.50
2023-03-31T13:05:38.523Z,58.00
2023-03-31T13:07:28.718Z,54.50
2023-03-31T13:09:11.554Z,63.50
2023-03-31T13:10:59.111Z,66.00
2023-03-31T13:12:33.322Z,65.50
2023-03-31T13:14:20.366Z,62.80
2023-03-31T13:15:58.445Z,61.20
2023-03-31T13:17:33.965Z,70.20
2023-03-31T13:19:06.065Z,75.00
2023-03-31T13:20:39.249Z,65.40
2023-03-31T13:22:28.120Z,74.50
2023-03-31T13:24:01.439Z,73.75
2023-03-31T13:25:34.860Z,72.60
2023-03-31T13:27:39.602Z,77.60
2023-03-31T13:29:17.758Z,79.50
2023-03-31T13:30:49.650Z,75.75
2023-03-31T13:32:25.587Z,79.00
2023-03-31T13:33:58.555Z,73.20
2023-03-31T13:35:30.479Z,71.80
2023-03-31T13:37:17.264Z,76.50
2023-03-31T13:39:20.071Z,72.60
2023-03-31T13:41:16.131Z,72.25
2023-03-31T13:43:26.585Z,73.00
2023-03-31T13:45:17.078Z,60.40
2023-03-31T13:47:18.298Z,62.20
2023-03-31T13:48:52.240Z,65.20
2023-03-31T13:50:51.064Z,69.20
2023-03-31T13:52:47.241Z,68.80
2023-03-31T13:54:40.961Z,64.80
2023-03-31T13:56:24.050Z,63.00
2023-03-31T13:57:58.553Z,60.00
2023-03-31T13:59:47.000Z,60.40
2023-03-31T14:01:55.205Z,67.00
2023-03-31T14:03:30.933Z,62.75
2023-03-31T14:05:12.332Z,64.50
2023-03-31T14:06:53.813Z,62.75
2023-03-31T14:08:40.906Z,65.00
2023-03-31T14:10:30.235Z,58.25
2023-03-31T14:12:02.423Z,56.75
2023-03-31T14:13:34.378Z,51.50
2023-03-31T14:15:07.231Z,58.25
2023-03-31T14:16:40.962Z,65.40
2023-03-31T14:18:34.236Z,64.40
2023-03-31T14:20:15.554Z,59.00
2023-03-31T14:21:54.533Z,58.00
2023-03-31T14:24:20.080Z,53.75
2023-03-31T14:26:10.383Z,47.50
2023-03-31T14:28:02.521Z,49.50
2023-03-31T14:29:51.651Z,42.75
2023-03-31T14:31:26.870Z,40.25
2023-03-31T14:33:03.507Z,43.75
2023-03-31T14:34:35.875Z,41.00
2023-03-31T14:36:21.539Z,44.50
2023-03-31T14:37:54.643Z,44.25
2023-03-31T14:39:47.603Z,39.00
2023-03-31T14:41:29.849Z,35.25
2023-03-31T14:43:01.914Z,35.75
2023-03-31T14:44:34.245Z,31.20
2023-03-31T14:46:07.424Z,31.50
2023-03-31T14:47:39.282Z,28.60
2023-03-31T14:49:39.450Z,29.80
2023-03-31T14:51:11.882Z,26.60
2023-03-31T14:52:47.845Z,23.40
2023-03-31T14:54:20.686Z,26.00
2023-03-31T14:55:58.689Z,24.60
2023-03-31T14:57:33.307Z,23.20
2023-03-31T14:59:05.296Z,23.40
2023-03-31T15:00:37.223Z,25.60
2023-03-31T15:02:12.023Z,23.20
2023-03-31T15:03:43.934Z,23.80
2023-03-31T15:05:23.188Z,24.20
2023-03-31T15:06:55.285Z,20.60
2023-03-31T15:08:27.237Z,22.60
2023-03-31T15:09:59.165Z,22.20
2023-03-31T15:11:31.514Z,20.40
2023-03-31T15:13:36.442Z,17.80
2023-03-31T15:15:08.861Z,18.80
2023-03-31T15:16:42.653Z,18.60
2023-03-31T15:18:15.830Z,20.20
2023-03-31T15:19:59.416Z,20.20
2023-03-31T15:21:31.983Z,17.20
2023-03-31T15:23:25.041Z,19.60
2023-03-31T15:24:57.507Z,18.20
2023-03-31T15:26:40.509Z,19.20
2023-03-31T15:28:14.820Z,18.60
2023-03-31T15:29:56.668Z,19.40
2023-03-31T15:31:28.589Z,17.40
2023-03-31T15:33:11.737Z,18.20
2023-03-31T15:34:50.967Z,17.00
2023-03-31T15:36:23.667Z,17.00
2023-03-31T15:37:57.788Z,19.60
2023-03-31T15:39:31.681Z,15.00
2023-03-31T15:41:03.553Z,14.40
2023-03-31T15:42:36.926Z,17.40
2023-03-31T15:44:35.031Z,16.00
2023-03-31T15:46:37.153Z,14.40
2023-03-31T15:48:11.525Z,16.80
2023-03-31T15:49:53.870Z,13.80
2023-03-31T15:51:36.147Z,14.20
2023-03-31T15:53:27.631Z,15.80
2023-03-31T15:54:59.529Z,16.00
2023-03-31T15:56:38.348Z,12.40
2023-03-31T15:58:13.070Z,12.80
2023-03-31T15:59:55.741Z,11.00
2023-03-31T16:01:34.551Z,17.20
2023-03-31T16:03:17.243Z,13.00
2023-03-31T16:04:50.678Z,11.80
2023-03-31T16:06:25.421Z,13.00
2023-03-31T16:07:57.265Z,11.00
2023-03-31T16:09:40.018Z,10.80
2023-03-31T16:11:14.275Z,13.00
2023-03-31T16:12:52.861Z,10.80
2023-03-31T16:14:43.921Z,11.20
2023-03-31T16:16:18.465Z,11.80
2023-03-31T16:18:01.906Z,10.40
2023-03-31T16:19:49.668Z,10.80
2023-03-31T16:21:26.452Z,7.60
2023-03-31T16:23:01.675Z,12.40
2023-03-31T16:24:34.774Z,13.00
2023-03-31T16:26:07.335Z,10.40
2023-03-31T16:27:41.548Z,11.60
2023-03-31T16:29:21.202Z,10.00
2023-03-31T16:30:54.839Z,9.60
2023-03-31T16:32:26.776Z,10.60
2023-03-31T16:33:58.700Z,8.40
2023-03-31T16:35:38.285Z,8.20
2023-03-31T16:37:11.747Z,8.60
2023-03-31T16:38:43.604Z,10.80
2023-03-31T16:40:15.517Z,9.00
2023-03-31T16:41:47.364Z,9.00
2023-03-31T16:43:20.556Z,10.00
2023-03-31T16:45:09.483Z,11.20
2023-03-31T16:46:44.379Z,6.00
2023-03-31T16:48:19.607Z,9.00
2023-03-31T16:49:51.534Z,5.80
2023-03-31T16:51:23.441Z,9.00
2023-03-31T16:52:55.320Z,9.00
2023-03-31T16:54:27.404Z,9.20
2023-03-31T16:55:59.443Z,7.60
2023-03-31T16:57:32.323Z,8.40
2023-03-31T16:59:04.244Z,8.00
2023-03-31T17:00:36.359Z,7.00
2023-03-31T17:02:11.208Z,7.20
2023-03-31T17:03:43.909Z,9.00
2023-03-31T17:05:16.126Z,7.80
2023-03-31T17:06:47.964Z,6.80
2023-03-31T17:08:20.860Z,8.60
2023-03-31T17:09:52.714Z,5.60
2023-03-31T17:11:24.812Z,8.00
2023-03-31T17:12:56.790Z,9.00
2023-03-31T17:14:28.857Z,4.00
2023-03-31T17:16:16.526Z,3.80
2023-03-31T17:17:53.504Z,8.00
2023-03-31T17:19:27.299Z,7.00
2023-03-31T17:21:09.560Z,7.00
2023-03-31T17:22:41.864Z,8.80
2023-03-31T17:24:13.850Z,8.00
2023-03-31T17:25:53.175Z,5.80
2023-03-31T17:27:28.764Z,5.80
2023-03-31T17:29:01.244Z,7.00
2023-03-31T17:30:36.604Z,8.20
2023-03-31T17:32:09.996Z,8.40
2023-03-31T17:33:42.101Z,6.00
2023-03-31T17:35:20.757Z,4.00
2023-03-31T17:36:55.119Z,5.00
2023-03-31T17:38:27.207Z,8.00
2023-03-31T17:39:59.460Z,4.80
2023-03-31T17:41:31.846Z,8.00
2023-03-31T17:43:04.055Z,8.00
2023-03-31T17:44:35.930Z,7.60
2023-03-31T17:46:12.417Z,5.80
2023-03-31T17:47:46.451Z,8.20
2023-03-31T17:49:18.528Z,6.40
2023-03-31T17:50:50.317Z,6.20
2023-03-31T17:52:22.813Z,7.00
2023-03-31T17:53:54.768Z,6.00
2023-03-31T17:55:27.333Z,7.00
2023-03-31T17:56:59.247Z,7.60
2023-03-31T17:58:31.329Z,5.20
2023-03-31T18:00:09.943Z,6.00
2023-03-31T18:01:45.448Z,8.00
2023-03-31T18:03:17.310Z,6.80
2023-03-31T18:04:49.234Z,7.00
2023-03-31T18:06:21.214Z,7.40
2023-03-31T18:07:53.753Z,9.00
2023-03-31T18:09:25.676Z,8.00
2023-03-31T18:10:57.773Z,10.00
2023-03-31T18:12:29.966Z,14.00
2023-03-31T18:14:02.893Z,11.60
2023-03-31T18:15:34.837Z,7.00
2023-03-31T18:17:06.818Z,6.80
2023-03-31T18:18:39.593Z,8.20
2023-03-31T18:20:12.157Z,7.80
2023-03-31T18:21:44.085Z,7.00
2023-03-31T18:23:16.302Z,7.00
2023-03-31T18:24:49.047Z,8.00
2023-03-31T18:26:24.462Z,7.20
2023-03-31T18:27:56.730Z,72.50
2023-03-31T18:29:28.684Z,201.50
2023-03-31T18:31:07.897Z,125.00
2023-03-31T18:32:40.084Z,86.00
2023-03-31T18:34:13.684Z,61.40
2023-03-31T18:35:46.952Z,62.00
2023-03-31T18:37:19.092Z,58.25
2023-03-31T18:38:51.599Z,56.25
2023-03-31T18:40:23.816Z,56.50
2023-03-31T18:41:55.729Z,61.00
2023-03-31T18:43:27.849Z,63.20
2023-03-31T18:44:59.637Z,66.40
2023-03-31T18:46:31.527Z,61.25
2023-03-31T18:48:03.470Z,70.40
2023-03-31T18:49:35.368Z,64.20
2023-03-31T18:51:07.148Z,67.80
2023-03-31T18:52:39.250Z,59.50
2023-03-31T18:54:11.462Z,67.00
2023-03-31T18:55:43.322Z,64.00
2023-03-31T18:57:15.141Z,72.60
2023-03-31T18:58:47.181Z,66.40
2023-03-31T19:00:20.687Z,67.20
2023-03-31T19:01:52.852Z,81.50
2023-03-31T19:03:26.706Z,141.00
2023-03-31T19:04:59.146Z,91.75
2023-03-31T19:06:31.005Z,82.50
2023-03-31T19:08:03.028Z,79.75
2023-03-31T19:09:34.922Z,73.00
2023-03-31T19:11:11.575Z,75.00
2023-03-31T19:12:49.498Z,81.50
2023-03-31T19:14:21.653Z,86.75
2023-03-31T19:15:53.501Z,78.50
2023-03-31T19:17:25.842Z,79.25
2023-03-31T19:18:57.754Z,92.50
2023-03-31T19:20:29.609Z,92.25
2023-03-31T19:22:01.552Z,89.00
2023-03-31T19:23:34.261Z,90.50
2023-03-31T19:25:06.535Z,85.00
2023-03-31T19:26:38.570Z,89.25
2023-03-31T19:28:14.901Z,88.00
2023-03-31T19:29:46.797Z,94.75
2023-03-31T19:31:18.589Z,92.50
2023-03-31T19:32:50.694Z,92.25
2023-03-31T19:34:22.995Z,88.50
2023-03-31T19:35:55.025Z,87.25
2023-03-31T19:37:27.432Z,90.25
2023-03-31T19:38:59.501Z,85.75
2023-03-31T19:40:31.488Z,93.25
2023-03-31T19:42:03.578Z,79.75
2023-03-31T19:43:35.563Z,89.25
2023-03-31T19:45:08.029Z,94.50
2023-03-31T19:46:40.041Z,98.00
2023-03-31T19:48:12.844Z,102.75
2023-03-31T19:49:44.777Z,98.00
2023-03-31T19:51:16.737Z,86.25
2023-03-31T19:52:50.050Z,99.75
2023-03-31T19:54:22.151Z,101.75
2023-03-31T19:56:02.106Z,94.50
2023-03-31T19:57:34.008Z,98.00
2023-03-31T19:59:06.109Z,104.75
2023-03-31T20:00:38.064Z,101.75
2023-03-31T20:02:14.223Z,104.50
2023-03-31T20:03:46.316Z,103.50
2023-03-31T20:05:19.767Z,103.25
2023-03-31T20:06:53.543Z,100.25
2023-03-31T20:08:25.372Z,93.50
2023-03-31T20:09:57.346Z,95.00
2023-03-31T20:11:29.867Z,96.00
2023-03-31T20:13:01.734Z,125.33
2023-03-31T20:14:33.632Z,226.75
2023-03-31T20:16:10.140Z,215.75
2023-03-31T20:17:42.103Z,239.20
2023-03-31T20:19:16.475Z,168.75
2023-03-31T20:20:48.261Z,144.33
2023-03-31T20:22:20.280Z,140.67
2023-03-31T20:23:52.911Z,133.00
2023-03-31T20:25:24.812Z,133.33
2023-03-31T20:26:57.044Z,134.33
2023-03-31T20:28:29.289Z,125.33
2023-03-31T20:30:01.382Z,127.00
2023-03-31T20:31:36.721Z,129.67
2023-03-31T20:33:08.685Z,129.67
2023-03-31T20:34:41.296Z,128.25
2023-03-31T20:36:17.727Z,136.33
2023-03-31T20:37:49.734Z,125.67
2023-03-31T20:39:21.861Z,128.67
2023-03-31T20:40:54.914Z,120.00
2023-03-31T20:42:26.988Z,125.67
2023-03-31T20:43:58.854Z,130.33
2023-03-31T20:45:31.010Z,129.67
2023-03-31T20:47:04.061Z,134.00
2023-03-31T20:48:37.664Z,136.33
2023-03-31T20:50:09.759Z,123.33
2023-03-31T20:51:42.946Z,127.67
2023-03-31T20:53:14.928Z,124.67
2023-03-31T20:54:46.783Z,119.50
2023-03-31T20:56:23.585Z,119.50
2023-03-31T20:57:55.455Z,107.75
2023-03-31T20:59:27.352Z,116.00
2023-03-31T21:00:59.514Z,115.75
2023-03-31T21:02:31.423Z,117.75
2023-03-31T21:04:03.983Z,111.50
2023-03-31T21:05:45.728Z,107.75
2023-03-31T21:07:17.650Z,113.25
2023-03-31T21:08:53.144Z,112.50
2023-03-31T21:10:24.966Z,108.75
2023-03-31T21:11:56.826Z,102.50
2023-03-31T21:13:31.971Z,102.75
2023-03-31T21:15:04.614Z,100.75
2023-03-31T21:16:36.547Z,96.25
2023-03-31T21:18:08.548Z,101.25
2023-03-31T21:19:40.500Z,99.00
2023-03-31T21:21:13.981Z,95.50
2023-03-31T21:22:46.185Z,94.00
2023-03-31T21:24:17.982Z,90.50
2023-03-31T21:25:50.723Z,88.50
2023-03-31T21:27:23.039Z,86.25
2023-03-31T21:28:55.047Z,83.75
2023-03-31T21:30:26.920Z,86.25
2023-03-31T21:31:59.796Z,85.50
2023-03-31T21:33:31.726Z,87.00
2023-03-31T21:35:03.698Z,89.00
2023-03-31T21:36:35.573Z,75.75
2023-03-31T21:38:07.614Z,88.50
2023-03-31T21:39:39.419Z,78.25
2023-03-31T21:41:19.099Z,76.50
2023-03-31T21:42:50.952Z,84.25
2023-03-31T21:44:23.267Z,79.50
2023-03-31T21:45:58.075Z,77.50
2023-03-31T21:47:29.983Z,83.75
2023-03-31T21:49:02.617Z,82.50
2023-03-31T21:50:35.466Z,84.00
2023-03-31T21:52:07.275Z,90.25
2023-03-31T21:53:39.140Z,90.25
2023-03-31T21:55:11.155Z,92.00
2023-03-31T21:56:43.293Z,90.25
2023-03-31T21:58:15.190Z,90.25
2023-03-31T21:59:47.137Z,89.25
2023-03-31T22:01:19.573Z,93.25
2023-03-31T22:02:53.772Z,92.75
2023-03-31T22:04:28.315Z,94.50
2023-03-31T22:06:07.322Z,95.75
2023-03-31T22:07:39.257Z,94.50
2023-03-31T22:09:11.268Z,93.00
2023-03-31T22:10:43.782Z,100.75
2023-03-31T22:12:15.625Z,103.75
2023-03-31T22:13:48.044Z,103.25
2023-03-31T22:15:19.980Z,101.50
2023-03-31T22:16:52.618Z,101.00
2023-03-31T22:18:24.527Z,108.50
2023-03-31T22:19:57.187Z,102.75
2023-03-31T22:21:29.191Z,117.00
2023-03-31T22:23:01.119Z,113.75
2023-03-31T22:24:33.045Z,111.75
2023-03-31T22:26:04.848Z,113.00
2023-03-31T22:27:36.789Z,112.75
2023-03-31T22:29:08.708Z,110.25
2023-03-31T22:30:40.618Z,112.00
2023-03-31T22:32:12.530Z,111.25
2023-03-31T22:33:44.412Z,109.25
